createdAt,value
2018-05-31T00:02:14.429Z,99.90
2018-05-31T00:04:42.058Z,99.90
2018-05-31T00:07:09.645Z,99.90
2018-05-31T00:09:37.297Z,99.90
2018-05-31T00:12:04.925Z,99.90
2018-05-31T00:14:32.552Z,99.90
2018-05-31T00:17:00.184Z,99.90
2018-05-31T00:19:27.776Z,99.90
2018-05-31T00:21:55.389Z,99.90
2018-05-31T00:24:22.977Z,99.90
2018-05-31T00:26:50.605Z,99.90
2018-05-31T00:29:18.200Z,99.90
2018-05-31T00:31:45.824Z,99.90
2018-05-31T00:34:13.443Z,99.90
2018-05-31T00:36:41.072Z,99.90
2018-05-31T00:39:08.659Z,99.90
2018-05-31T00:41:36.286Z,99.90
2018-05-31T00:44:03.886Z,99.90
2018-05-31T00:46:31.523Z,99.90
2018-05-31T00:48:59.168Z,99.90
2018-05-31T00:51:26.754Z,99.90
2018-05-31T00:53:54.344Z,99.90
2018-05-31T00:56:21.972Z,99.90
2018-05-31T00:58:49.604Z,99.90
2018-05-31T01:01:17.205Z,99.90
2018-05-31T01:03:44.828Z,99.90
2018-05-31T01:06:12.452Z,99.90
2018-05-31T01:08:40.049Z,99.90
2018-05-31T01:11:07.672Z,99.90
2018-05-31T01:13:35.269Z,99.90
2018-05-31T01:16:02.880Z,99.90
2018-05-31T01:18:30.473Z,99.90
2018-05-31T01:20:58.104Z,99.90
2018-05-31T01:23:25.686Z,99.90
2018-05-31T01:25:53.315Z,99.90
2018-05-31T01:28:20.901Z,99.90
2018-05-31T01:30:48.486Z,99.90
2018-05-31T01:33:16.130Z,99.90
2018-05-31T01:35:43.712Z,99.90
2018-05-31T01:38:23.222Z,99.90
2018-05-31T01:40:50.800Z,99.90
2018-05-31T01:43:18.430Z,99.90
2018-05-31T01:45:46.034Z,99.90
2018-05-31T01:48:13.684Z,99.90
2018-05-31T01:50:42.043Z,99.90
2018-05-31T01:53:09.632Z,99.90
2018-05-31T01:55:37.261Z,99.90
2018-05-31T01:58:04.892Z,99.90
2018-05-31T02:00:32.470Z,99.90
2018-05-31T02:03:00.049Z,99.90
2018-05-31T02:05:27.677Z,99.90
2018-05-31T02:07:55.264Z,99.90
2018-05-31T02:10:23.669Z,99.90
2018-05-31T02:12:51.294Z,99.90
2018-05-31T02:15:18.876Z,99.90
2018-05-31T02:17:46.510Z,99.90
2018-05-31T02:20:14.110Z,99.90
2018-05-31T02:22:41.754Z,99.90
2018-05-31T02:25:09.336Z,99.90
2018-05-31T02:27:36.933Z,99.90
2018-05-31T02:30:05.014Z,99.90
2018-05-31T02:32:32.603Z,99.90
2018-05-31T02:35:00.232Z,99.90
2018-05-31T02:37:27.826Z,99.90
2018-05-31T02:39:55.455Z,99.90
2018-05-31T02:42:23.050Z,99.90
2018-05-31T02:44:50.640Z,99.90
2018-05-31T02:47:19.041Z,99.90
2018-05-31T02:49:46.674Z,99.90
2018-05-31T02:52:15.039Z,99.90
2018-05-31T02:54:42.674Z,99.90
2018-05-31T02:57:10.264Z,99.90
2018-05-31T02:59:37.849Z,99.90
2018-05-31T03:02:06.244Z,99.90
2018-05-31T03:04:33.877Z,99.90
2018-05-31T03:07:02.305Z,99.90
2018-05-31T03:09:29.875Z,99.90
2018-05-31T03:11:57.501Z,99.90
2018-05-31T03:14:25.149Z,99.90
2018-05-31T03:16:53.541Z,99.90
2018-05-31T03:19:21.134Z,99.90
2018-05-31T03:21:48.760Z,99.90
2018-05-31T03:24:16.365Z,99.90
2018-05-31T03:26:43.971Z,99.90
2018-05-31T03:29:11.593Z,99.90
2018-05-31T03:31:39.187Z,99.90
2018-05-31T03:34:06.826Z,99.90
2018-05-31T03:36:34.430Z,99.90
2018-05-31T03:39:02.049Z,99.90
2018-05-31T03:41:29.632Z,99.90
2018-05-31T03:43:57.261Z,99.90
2018-05-31T03:46:24.867Z,99.90
2018-05-31T03:48:52.504Z,99.90
2018-05-31T03:51:20.104Z,99.90
2018-05-31T03:53:47.712Z,99.90
2018-05-31T03:56:15.340Z,99.90
2018-05-31T03:58:42.937Z,99.90
2018-05-31T04:01:10.568Z,99.90
2018-05-31T04:03:38.188Z,99.90
2018-05-31T04:06:05.791Z,99.90
2018-05-31T04:08:33.438Z,99.90
2018-05-31T04:11:01.885Z,99.90
2018-05-31T04:13:29.514Z,99.90
2018-05-31T04:15:57.132Z,99.90
2018-05-31T04:18:24.718Z,99.90
2018-05-31T04:20:52.349Z,99.90
2018-05-31T04:23:19.951Z,99.90
2018-05-31T04:25:47.604Z,99.90
2018-05-31T04:28:15.197Z,99.90
2018-05-31T04:30:42.793Z,99.90
2018-05-31T04:33:10.442Z,99.90
2018-05-31T04:35:38.087Z,99.90
2018-05-31T04:38:05.681Z,99.90
2018-05-31T04:40:34.037Z,99.90
2018-05-31T04:43:01.669Z,99.90
2018-05-31T04:45:29.269Z,99.90
2018-05-31T04:47:56.896Z,99.90
2018-05-31T04:50:24.522Z,99.90
2018-05-31T04:52:52.877Z,99.90
2018-05-31T04:55:21.281Z,99.90
2018-05-31T04:57:49.636Z,99.90
2018-05-31T05:00:18.037Z,99.90
2018-05-31T05:02:45.643Z,99.90
2018-05-31T05:05:13.273Z,99.90
2018-05-31T05:07:40.869Z,99.90
2018-05-31T05:10:12.102Z,99.90
2018-05-31T05:12:41.158Z,99.90
2018-05-31T05:15:11.321Z,99.90
2018-05-31T05:17:41.197Z,99.90
2018-05-31T05:20:12.059Z,99.90
2018-05-31T05:22:39.881Z,99.90
2018-05-31T05:25:07.474Z,99.90
2018-05-31T05:27:35.068Z,99.90
2018-05-31T05:30:02.694Z,99.90
2018-05-31T05:32:30.318Z,99.90
2018-05-31T05:34:57.937Z,99.90
2018-05-31T05:37:25.570Z,99.90
2018-05-31T05:39:53.923Z,99.90
2018-05-31T05:42:21.571Z,99.90
2018-05-31T05:44:49.161Z,99.90
2018-05-31T05:47:17.522Z,99.90
2018-05-31T05:49:45.165Z,99.90
2018-05-31T05:52:12.797Z,99.90
2018-05-31T05:54:40.434Z,99.90
2018-05-31T05:57:08.037Z,99.90
2018-05-31T05:59:35.676Z,99.90
2018-05-31T06:02:03.270Z,99.90
2018-05-31T06:04:30.892Z,99.90
2018-05-31T06:06:58.477Z,99.90
2018-05-31T06:09:26.108Z,99.90
2018-05-31T06:11:53.753Z,99.90
2018-05-31T06:14:21.352Z,99.90
2018-05-31T06:16:48.955Z,99.90
2018-05-31T06:19:16.585Z,99.90
2018-05-31T06:21:44.208Z,99.90
2018-05-31T06:24:11.794Z,99.90
2018-05-31T06:26:39.455Z,99.90
2018-05-31T06:29:07.058Z,99.90
2018-05-31T06:31:34.712Z,99.90
2018-05-31T06:34:02.310Z,99.90
2018-05-31T06:36:30.728Z,99.90
2018-05-31T06:38:58.343Z,99.90
2018-05-31T06:41:25.961Z,99.90
2018-05-31T06:43:53.582Z,99.90
2018-05-31T06:46:21.171Z,99.90
2018-05-31T06:48:48.818Z,99.90
2018-05-31T06:51:16.401Z,99.90
2018-05-31T06:53:44.021Z,99.90
2018-05-31T06:56:11.606Z,99.90
2018-05-31T06:58:39.990Z,99.90
2018-05-31T07:01:08.336Z,99.90
2018-05-31T07:03:35.960Z,99.90
2018-05-31T07:06:03.593Z,99.90
2018-05-31T07:08:31.940Z,99.90
2018-05-31T07:10:59.601Z,99.90
2018-05-31T07:13:27.235Z,99.90
2018-05-31T07:15:54.885Z,99.90
2018-05-31T07:18:22.474Z,99.90
2018-05-31T07:20:50.053Z,99.90
2018-05-31T07:23:17.669Z,99.90
2018-05-31T07:25:45.286Z,99.90
2018-05-31T07:28:12.868Z,99.90
2018-05-31T07:30:41.253Z,99.90
2018-05-31T07:33:08.828Z,99.90
2018-05-31T07:35:36.458Z,99.90
2018-05-31T07:38:04.795Z,99.90
2018-05-31T07:40:32.441Z,99.90
2018-05-31T07:43:00.019Z,99.90
2018-05-31T07:45:27.625Z,99.90
2018-05-31T07:47:55.205Z,99.90
2018-05-31T07:50:22.816Z,99.90
2018-05-31T07:52:50.387Z,99.90
2018-05-31T07:55:17.993Z,99.90
2018-05-31T07:57:45.625Z,99.90
2018-05-31T08:00:13.240Z,99.90
2018-05-31T08:02:40.813Z,99.90
2018-05-31T08:05:08.421Z,99.90
2018-05-31T08:07:36.760Z,99.90
2018-05-31T08:10:05.043Z,99.90
2018-05-31T08:12:32.614Z,99.90
2018-05-31T08:15:00.182Z,99.90
2018-05-31T08:17:27.804Z,99.90
2018-05-31T08:19:55.383Z,99.90
2018-05-31T08:22:22.961Z,99.90
2018-05-31T08:24:50.581Z,99.90
2018-05-31T08:27:18.184Z,99.90
2018-05-31T08:29:45.777Z,99.90
2018-05-31T08:32:13.364Z,99.90
2018-05-31T08:34:40.968Z,99.90
2018-05-31T08:37:09.350Z,99.90
2018-05-31T08:39:37.175Z,99.90
2018-05-31T08:42:07.048Z,99.90
2018-05-31T08:44:36.694Z,99.90
2018-05-31T08:47:06.899Z,99.90
2018-05-31T08:49:36.183Z,99.90
2018-05-31T08:52:04.658Z,99.90
2018-05-31T08:54:35.415Z,99.90
2018-05-31T08:57:04.402Z,99.90
2018-05-31T08:59:33.225Z,99.90
2018-05-31T09:02:04.140Z,99.90
2018-05-31T09:04:32.369Z,99.90
2018-05-31T09:07:00.712Z,99.90
2018-05-31T09:09:29.634Z,99.90
2018-05-31T09:11:58.503Z,99.90
2018-05-31T09:14:26.617Z,99.90
2018-05-31T09:16:54.852Z,99.90
2018-05-31T09:19:23.453Z,99.90
2018-05-31T09:21:51.688Z,99.90
2018-05-31T09:24:20.158Z,99.90
2018-05-31T09:26:50.498Z,99.90
2018-05-31T09:29:19.467Z,99.90
2018-05-31T09:31:49.108Z,99.90
2018-05-31T09:34:18.972Z,99.90
2018-05-31T09:36:47.774Z,99.90
2018-05-31T09:39:16.378Z,99.40
2018-05-31T09:41:45.926Z,98.20
2018-05-31T09:44:15.948Z,97.20
2018-05-31T09:46:44.099Z,97.20
2018-05-31T09:49:13.437Z,97.90
2018-05-31T09:51:42.683Z,99.90
2018-05-31T09:54:13.720Z,99.90
2018-05-31T09:56:42.097Z,99.10
2018-05-31T09:59:12.878Z,97.90
2018-05-31T10:01:44.077Z,99.00
2018-05-31T10:04:13.843Z,98.30
2018-05-31T10:06:42.093Z,96.90
2018-05-31T10:09:12.493Z,94.10
2018-05-31T10:11:41.089Z,94.10
2018-05-31T10:14:10.297Z,95.00
2018-05-31T10:16:39.110Z,97.40
2018-05-31T10:19:08.435Z,93.40
2018-05-31T10:21:36.595Z,94.10
2018-05-31T10:24:04.981Z,93.00
2018-05-31T10:26:33.360Z,94.40
2018-05-31T10:29:01.743Z,94.50
2018-05-31T10:31:30.007Z,93.60
2018-05-31T10:33:57.687Z,94.20
2018-05-31T10:36:25.256Z,94.10
2018-05-31T10:38:52.877Z,92.90
2018-05-31T10:41:20.453Z,92.60
2018-05-31T10:43:48.030Z,92.30
2018-05-31T10:46:15.666Z,92.70
2018-05-31T10:48:46.256Z,94.50
2018-05-31T10:51:19.046Z,92.80
2018-05-31T10:53:51.075Z,90.00
2018-05-31T10:56:23.820Z,90.70
2018-05-31T11:01:32.374Z,91.40
2018-05-31T11:04:01.787Z,90.40
2018-05-31T11:06:34.286Z,91.40
2018-05-31T11:09:03.332Z,92.10
2018-05-31T11:11:35.599Z,89.90
2018-05-31T11:14:05.307Z,89.20
2018-05-31T11:16:39.414Z,85.60
2018-05-31T11:19:08.422Z,85.60
2018-05-31T11:21:36.837Z,86.80
2018-05-31T11:24:05.245Z,86.70
2018-05-31T11:26:33.540Z,85.90
2018-05-31T11:29:02.790Z,82.20
2018-05-31T11:31:31.513Z,84.70
2018-05-31T11:34:00.544Z,84.20
2018-05-31T11:39:03.987Z,83.90
2018-05-31T11:41:33.216Z,77.30
2018-05-31T11:44:01.811Z,79.90
2018-05-31T11:46:33.059Z,79.40
2018-05-31T11:49:09.120Z,80.90
2018-05-31T11:51:40.234Z,79.20
2018-05-31T11:54:09.901Z,76.50
2018-05-31T11:56:42.467Z,77.20
2018-05-31T11:59:10.999Z,77.10
2018-05-31T12:01:42.355Z,75.50
2018-05-31T12:04:12.415Z,74.40
2018-05-31T12:06:40.862Z,71.50
2018-05-31T12:09:11.645Z,76.80
2018-05-31T12:11:40.807Z,70.80
2018-05-31T12:14:11.474Z,74.10
2018-05-31T12:16:40.369Z,72.40
2018-05-31T12:19:07.993Z,72.20
2018-05-31T12:21:35.597Z,75.30
2018-05-31T12:24:03.176Z,75.20
2018-05-31T12:26:30.793Z,72.70
2018-05-31T12:28:58.365Z,68.00
2018-05-31T12:31:25.968Z,68.50
2018-05-31T12:33:53.537Z,68.80
2018-05-31T12:36:21.147Z,65.20
2018-05-31T12:38:48.719Z,62.60
2018-05-31T12:41:16.330Z,62.90
2018-05-31T12:43:43.956Z,63.50
2018-05-31T12:46:11.732Z,63.90
2018-05-31T12:48:41.264Z,64.40
2018-05-31T12:51:09.041Z,67.30
2018-05-31T12:53:36.668Z,67.30
2018-05-31T12:56:04.274Z,63.30
2018-05-31T12:58:31.893Z,64.30
2018-05-31T13:00:59.509Z,65.80
2018-05-31T13:03:27.076Z,65.10
2018-05-31T13:05:54.707Z,64.90
2018-05-31T13:08:22.386Z,61.30
2018-05-31T13:10:49.992Z,61.30
2018-05-31T13:13:18.088Z,61.10
2018-05-31T13:15:45.744Z,60.90
2018-05-31T13:18:13.645Z,59.30
2018-05-31T13:20:41.298Z,59.70
2018-05-31T13:23:08.876Z,59.40
2018-05-31T13:25:36.492Z,59.70
2018-05-31T13:28:04.073Z,60.50
2018-05-31T13:30:32.460Z,57.90
2018-05-31T13:33:00.832Z,58.10
2018-05-31T13:35:29.192Z,54.90
2018-05-31T13:37:56.806Z,54.90
2018-05-31T13:40:24.417Z,54.50
2018-05-31T13:42:51.995Z,54.20
2018-05-31T13:45:19.600Z,54.60
2018-05-31T13:47:47.181Z,54.80
2018-05-31T13:50:14.796Z,56.80
2018-05-31T13:52:42.436Z,57.10
2018-05-31T13:55:10.015Z,55.90
2018-05-31T13:57:37.602Z,54.10
2018-05-31T14:00:05.214Z,53.80
2018-05-31T14:02:32.799Z,53.00
2018-05-31T14:05:00.422Z,55.90
2018-05-31T14:07:27.997Z,55.30
2018-05-31T14:09:56.347Z,57.40
2018-05-31T14:12:23.965Z,58.30
2018-05-31T14:14:51.576Z,55.30
2018-05-31T14:17:19.144Z,56.60
2018-05-31T14:19:46.722Z,56.00
2018-05-31T14:22:14.349Z,58.00
2018-05-31T14:24:41.925Z,57.00
2018-05-31T14:27:09.529Z,57.50
2018-05-31T14:29:37.097Z,58.10
2018-05-31T14:32:04.707Z,57.90
2018-05-31T14:34:32.278Z,57.70
2018-05-31T14:36:59.894Z,57.50
2018-05-31T14:39:27.469Z,55.30
2018-05-31T14:41:55.082Z,54.70
2018-05-31T14:44:22.667Z,55.30
2018-05-31T14:46:50.292Z,55.30
2018-05-31T14:49:17.910Z,54.10
2018-05-31T14:51:45.475Z,54.80
2018-05-31T14:54:13.847Z,56.10
2018-05-31T14:56:41.416Z,55.80
2018-05-31T14:59:09.020Z,54.30
2018-05-31T15:01:36.609Z,55.10
2018-05-31T15:04:04.267Z,55.40
2018-05-31T15:06:31.851Z,54.80
2018-05-31T15:08:59.459Z,55.30
2018-05-31T15:11:27.033Z,54.10
2018-05-31T15:13:54.657Z,54.80
2018-05-31T15:16:22.231Z,55.80
2018-05-31T15:18:49.804Z,54.50
2018-05-31T15:21:17.418Z,56.20
2018-05-31T15:23:44.993Z,57.20
2018-05-31T15:26:12.606Z,56.60
2018-05-31T15:28:40.176Z,56.20
2018-05-31T15:31:07.755Z,56.40
2018-05-31T15:33:35.371Z,55.40
2018-05-31T15:36:02.971Z,57.30
2018-05-31T15:38:30.540Z,56.10
2018-05-31T15:40:58.150Z,57.10
2018-05-31T15:43:25.963Z,57.00
2018-05-31T15:45:53.568Z,58.20
2018-05-31T15:48:21.177Z,58.10
2018-05-31T15:50:48.755Z,58.50
2018-05-31T15:53:16.361Z,58.80
2018-05-31T15:55:43.969Z,59.40
2018-05-31T15:58:11.581Z,66.70
2018-05-31T16:00:39.206Z,73.90
2018-05-31T16:03:06.813Z,80.80
2018-05-31T16:05:34.406Z,88.00
2018-05-31T16:08:02.020Z,96.70
2018-05-31T16:10:29.608Z,99.90
2018-05-31T16:12:57.411Z,99.90
2018-05-31T16:15:25.001Z,99.90
2018-05-31T16:17:52.663Z,99.90
2018-05-31T16:20:20.344Z,99.90
2018-05-31T16:22:47.969Z,99.90
2018-05-31T16:25:18.379Z,99.90
2018-05-31T16:27:46.167Z,99.90
2018-05-31T16:30:14.589Z,99.90
2018-05-31T16:32:42.382Z,99.90
2018-05-31T16:35:10.023Z,99.90
2018-05-31T16:37:37.616Z,99.90
2018-05-31T16:40:05.278Z,99.90
2018-05-31T16:42:32.849Z,99.90
2018-05-31T16:45:00.445Z,99.90
2018-05-31T16:47:28.072Z,99.90
2018-05-31T16:49:55.649Z,99.90
2018-05-31T16:52:23.297Z,99.90
2018-05-31T16:54:50.923Z,99.90
2018-05-31T16:57:18.531Z,99.90
2018-05-31T16:59:46.116Z,99.90
2018-05-31T17:02:15.392Z,99.90
2018-05-31T17:04:43.006Z,99.90
2018-05-31T17:07:10.617Z,99.90
2018-05-31T17:09:38.201Z,99.90
2018-05-31T17:12:05.839Z,99.90
2018-05-31T17:14:33.434Z,99.90
2018-05-31T17:17:01.017Z,99.90
2018-05-31T17:19:29.409Z,99.90
2018-05-31T17:21:56.988Z,99.90
2018-05-31T17:24:24.610Z,99.90
2018-05-31T17:26:52.963Z,99.90
2018-05-31T17:29:20.580Z,99.90
2018-05-31T17:31:48.204Z,99.90
2018-05-31T17:34:16.613Z,99.90
2018-05-31T17:36:44.204Z,99.90
2018-05-31T17:39:11.853Z,99.90
2018-05-31T17:41:42.053Z,99.90
2018-05-31T17:44:10.208Z,99.90
2018-05-31T17:46:38.564Z,99.90
2018-05-31T17:49:07.203Z,99.90
2018-05-31T17:51:35.106Z,99.90
2018-05-31T17:54:02.756Z,99.90
2018-05-31T17:56:30.389Z,99.90
2018-05-31T17:58:57.973Z,99.90
2018-05-31T18:01:25.550Z,99.90
2018-05-31T18:03:53.168Z,99.90
2018-05-31T18:06:20.961Z,99.90
2018-05-31T18:08:48.582Z,99.90
2018-05-31T18:11:16.167Z,99.90
2018-05-31T18:13:43.798Z,99.90
2018-05-31T18:16:11.412Z,99.90
2018-05-31T18:18:39.046Z,99.90
2018-05-31T18:21:06.626Z,99.90
2018-05-31T18:23:34.271Z,99.90
2018-05-31T18:26:01.902Z,99.90
2018-05-31T18:28:29.486Z,99.90
2018-05-31T18:30:57.117Z,99.90
2018-05-31T18:33:24.734Z,99.90
2018-05-31T18:35:52.605Z,99.90
2018-05-31T18:38:20.244Z,99.90
2018-05-31T18:40:47.887Z,99.90
2018-05-31T18:43:15.468Z,99.90
2018-05-31T18:45:43.041Z,99.90
2018-05-31T18:48:10.648Z,99.90
2018-05-31T18:50:38.226Z,99.90
2018-05-31T18:53:06.604Z,99.90
2018-05-31T18:55:34.992Z,99.90
2018-05-31T18:58:03.353Z,99.90
2018-05-31T19:00:30.935Z,99.90
2018-05-31T19:02:58.560Z,99.90
2018-05-31T19:05:26.136Z,99.90
2018-05-31T19:07:53.722Z,99.90
2018-05-31T19:10:21.339Z,99.90
2018-05-31T19:12:54.662Z,99.90
2018-05-31T19:15:22.312Z,99.90
2018-05-31T19:17:50.473Z,99.90
2018-05-31T19:20:18.150Z,99.90
2018-05-31T19:22:45.739Z,99.90
2018-05-31T19:25:20.298Z,99.90
2018-05-31T19:27:47.887Z,99.90
2018-05-31T19:30:21.250Z,99.90
2018-05-31T19:32:48.839Z,99.90
2018-05-31T19:35:22.137Z,99.90
2018-05-31T19:37:50.023Z,99.90
2018-05-31T19:40:17.785Z,99.90
2018-05-31T19:42:50.945Z,99.90
2018-05-31T19:45:18.521Z,99.90
2018-05-31T19:47:46.141Z,99.90
2018-05-31T19:50:13.717Z,99.90
2018-05-31T19:52:46.965Z,99.90
2018-05-31T19:55:14.546Z,99.90
2018-05-31T19:57:47.826Z,99.90
2018-05-31T20:00:21.863Z,99.90
2018-05-31T20:02:55.049Z,99.90
2018-05-31T20:05:22.776Z,99.90
2018-05-31T20:07:50.395Z,99.90
2018-05-31T20:10:17.968Z,99.90
2018-05-31T20:12:45.579Z,99.90
2018-05-31T20:15:13.189Z,99.90
2018-05-31T20:17:40.812Z,99.90
2018-05-31T20:20:08.387Z,99.90
2018-05-31T20:22:36.018Z,99.90
2018-05-31T20:25:03.600Z,99.90
2018-05-31T20:27:31.173Z,99.90
2018-05-31T20:29:58.818Z,99.90
2018-05-31T20:32:26.447Z,99.90
2018-05-31T20:34:54.030Z,99.90
2018-05-31T20:37:21.642Z,99.90
2018-05-31T20:39:49.225Z,99.90
2018-05-31T20:42:16.839Z,99.90
2018-05-31T20:44:44.421Z,99.90
2018-05-31T20:47:12.049Z,99.90
2018-05-31T20:49:39.625Z,99.90
2018-05-31T20:52:07.241Z,99.90
2018-05-31T20:54:34.821Z,99.90
2018-05-31T20:57:02.438Z,99.90
2018-05-31T20:59:30.028Z,99.90
2018-05-31T21:01:57.612Z,99.90
2018-05-31T21:04:26.382Z,99.90
2018-05-31T21:06:55.394Z,99.90
2018-05-31T21:09:24.324Z,99.90
2018-05-31T21:11:51.953Z,99.90
2018-05-31T21:14:19.520Z,99.90
2018-05-31T21:16:47.171Z,99.90
2018-05-31T21:19:15.117Z,99.90
2018-05-31T21:21:42.755Z,99.90
2018-05-31T21:24:10.336Z,99.90
2018-05-31T21:26:37.960Z,99.90
2018-05-31T21:29:05.538Z,99.90
2018-05-31T21:31:33.115Z,99.90
2018-05-31T21:34:00.726Z,99.90
2018-05-31T21:36:28.310Z,99.90
2018-05-31T21:38:55.934Z,99.90
2018-05-31T21:41:23.518Z,99.90
2018-05-31T21:43:51.141Z,99.90
2018-05-31T21:46:18.726Z,99.90
2018-05-31T21:48:46.355Z,99.90
2018-05-31T21:51:13.985Z,99.90
2018-05-31T21:53:41.607Z,99.90
2018-05-31T21:56:09.314Z,99.90
2018-05-31T21:58:36.940Z,99.90
2018-05-31T22:01:04.520Z,99.90
2018-05-31T22:03:33.099Z,99.90
2018-05-31T22:06:00.729Z,99.90
2018-05-31T22:08:28.336Z,99.90
2018-05-31T22:10:56.009Z,99.90
2018-05-31T22:13:23.611Z,99.90
2018-05-31T22:15:52.007Z,99.90
2018-05-31T22:18:19.652Z,99.90
2018-05-31T22:20:47.671Z,99.90
2018-05-31T22:23:15.376Z,99.90
2018-05-31T22:25:43.855Z,99.90
2018-05-31T22:28:12.221Z,99.90
2018-05-31T22:30:39.913Z,99.90
2018-05-31T22:33:08.002Z,99.90
2018-05-31T22:35:35.658Z,99.90
2018-05-31T22:38:03.313Z,99.90
2018-05-31T22:40:30.889Z,99.90
2018-05-31T22:42:58.481Z,99.90
2018-05-31T22:45:26.106Z,99.90
2018-05-31T22:47:53.724Z,99.90
2018-05-31T22:50:21.339Z,99.90
2018-05-31T22:52:48.963Z,99.90
2018-05-31T22:55:16.583Z,99.90
2018-05-31T22:57:44.665Z,99.90
2018-05-31T23:00:12.419Z,99.90
2018-05-31T23:02:40.041Z,99.90
2018-05-31T23:05:07.756Z,99.90
2018-05-31T23:07:35.337Z,99.90
2018-05-31T23:10:03.097Z,99.90
2018-05-31T23:12:30.691Z,99.90
2018-05-31T23:14:58.325Z,99.90
2018-05-31T23:17:25.951Z,99.90
2018-05-31T23:19:53.587Z,99.90
2018-05-31T23:22:21.241Z,99.90
2018-05-31T23:24:48.837Z,99.90
2018-05-31T23:27:16.414Z,99.90
2018-05-31T23:29:44.044Z,99.90
2018-05-31T23:32:11.630Z,99.90
2018-05-31T23:34:39.205Z,99.90
2018-05-31T23:37:06.823Z,99.90
2018-05-31T23:39:34.397Z,99.90
2018-05-31T23:42:02.024Z,99.90
2018-05-31T23:44:29.613Z,99.90
2018-05-31T23:46:57.226Z,99.90
2018-05-31T23:49:24.823Z,99.90
2018-05-31T23:51:52.466Z,99.90
2018-05-31T23:54:20.045Z,99.90
2018-05-31T23:56:47.681Z,99.90
2018-05-31T23:59:15.297Z,99.90
